Time;durP1;ratioP1;P1;durP2;ratioP2;P2;SDS_P1;SDS_P2;PMS_P1;PMS_P2;Temp;Humidity;BMP_temperature;BMP_pressure;BME280_temperature;BME280_humidity;BME280_pressure;Samples;Min_cycle;Max_cycle;Signal;HPM_P1;HPM_P2
2022/06/24 00:02:17;;;;;;;4.90;4.10;;;;;;;15.79;58.68;99537.62;429712;1273;145855;-57
2022/06/24 00:12:26;;;;;;;3.60;3.20;;;;;;;15.76;58.53;99524.80;442918;1274;142046;-58
2022/06/24 00:22:42;;;;;;;4.00;3.70;;;;;;;15.75;58.54;99520.31;429661;1274;142574;-57
2022/06/24 00:32:48;;;;;;;4.70;4.10;;;;;;;15.72;58.73;99529.36;436416;1273;142051;-58
2022/06/24 00:42:55;;;;;;;5.80;4.40;;;;;;;15.66;58.76;99537.45;432730;1274;142276;-57
2022/06/24 00:53:01;;;;;;;4.90;4.50;;;;;;;15.68;58.65;99532.33;436261;1274;142138;-57
2022/06/24 01:03:07;;;;;;;5.00;4.00;;;;;;;15.70;58.69;99535.76;446543;1274;144712;-58
2022/06/24 01:13:14;;;;;;;7.00;4.10;;;;;;;15.70;58.86;99533.06;429748;1275;141401;-68
2022/06/24 01:23:26;;;;;;;4.70;4.30;;;;;;;15.73;58.81;99531.23;436111;1274;142479;-57
2022/06/24 01:33:32;;;;;;;6.40;4.10;;;;;;;15.74;58.84;99526.91;441853;1273;142767;-57
2022/06/24 01:43:38;;;;;;;11.40;4.70;;;;;;;15.78;58.82;99529.22;431861;1274;143039;-58
2022/06/24 01:53:44;;;;;;;6.50;4.70;;;;;;;15.77;58.82;99524.00;442107;1274;142047;-58
2022/06/24 02:03:50;;;;;;;5.40;4.80;;;;;;;15.75;58.85;99521.34;437162;1273;142590;-58
2022/06/24 02:13:58;;;;;;;10.00;5.90;;;;;;;15.70;58.87;99521.44;443144;1273;142914;-57
2022/06/24 02:24:04;;;;;;;9.40;6.30;;;;;;;15.70;58.98;99519.50;436832;1273;142142;-59
2022/06/24 02:34:10;;;;;;;5.80;4.60;;;;;;;15.67;59.01;99523.13;436794;1273;142505;-57
2022/06/24 02:44:16;;;;;;;6.30;5.30;;;;;;;15.69;59.13;99523.42;436004;1273;145296;-57
2022/06/24 02:54:22;;;;;;;8.80;6.10;;;;;;;15.90;59.05;99522.71;446999;1271;142573;-58
2022/06/24 03:04:27;;;;;;;5.10;4.60;;;;;;;17.38;57.63;99519.73;445054;1273;144644;-57
2022/06/24 03:14:33;;;;;;;4.60;4.20;;;;;;;19.04;55.53;99529.89;439238;1273;143376;-57
2022/06/24 03:24:40;;;;;;;7.00;5.20;;;;;;;20.40;51.87;99526.27;447111;1273;141222;-57
2022/06/24 03:34:46;;;;;;;8.20;4.90;;;;;;;22.82;49.16;99523.75;435040;1273;140952;-57
2022/06/24 03:44:52;;;;;;;6.60;4.30;;;;;;;21.57;47.11;99530.89;446072;1273;141515;-57
2022/06/24 03:54:58;;;;;;;5.50;5.00;;;;;;;20.07;49.20;99537.65;434977;1273;146140;-58
2022/06/24 04:05:04;;;;;;;8.40;4.00;;;;;;;25.62;45.62;99530.40;430089;1273;146287;-58
2022/06/24 04:15:18;;;;;;;8.00;4.80;;;;;;;30.86;37.88;99525.45;430051;1276;145102;-57
2022/06/24 04:25:24;;;;;;;3.60;3.10;;;;;;;34.15;32.99;99524.30;430418;1274;140916;-57
2022/06/24 04:35:30;;;;;;;3.70;2.90;;;;;;;36.91;28.95;99525.36;428687;1274;143307;-56
2022/06/24 04:45:36;;;;;;;9.70;3.60;;;;;;;38.93;25.65;99525.57;429124;1274;143616;-55
2022/06/24 04:55:42;;;;;;;3.90;2.90;;;;;;;40.38;23.37;99530.01;430700;1273;196430;-57
2022/06/24 05:05:48;;;;;;;3.20;2.90;;;;;;;42.24;21.72;99533.50;430638;1273;141194;-56
2022/06/24 05:15:54;;;;;;;3.60;2.80;;;;;;;43.65;19.61;99533.73;430220;1273;142274;-57
2022/06/24 05:26:00;;;;;;;8.10;2.90;;;;;;;44.87;18.25;99532.73;430261;1273;145257;-57
2022/06/24 05:36:06;;;;;;;3.90;2.60;;;;;;;46.97;16.79;99527.83;436707;1273;141198;-58
2022/06/24 05:46:12;;;;;;;4.20;2.30;;;;;;;49.42;15.45;99527.42;446708;1273;141661;-57
2022/06/24 05:56:19;;;;;;;3.00;2.50;;;;;;;51.05;13.69;99531.23;432711;1273;142903;-58
2022/06/24 06:06:25;;;;;;;2.40;2.20;;;;;;;51.50;13.28;99535.81;430683;1274;142793;-57
2022/06/24 06:16:31;;;;;;;2.90;2.60;;;;;;;52.17;12.53;99529.80;432454;1273;140852;-60
2022/06/24 06:26:36;;;;;;;2.90;2.70;;;;;;;51.51;11.59;99530.07;431458;1273;142721;-56
2022/06/24 06:36:49;;;;;;;6.60;3.30;;;;;;;52.17;11.66;99526.33;430128;1273;141905;-57
2022/06/24 06:46:55;;;;;;;5.10;4.70;;;;;;;53.98;10.73;99518.59;430313;1273;141821;-57
2022/06/24 06:57:01;;;;;;;5.80;5.50;;;;;;;53.90;10.36;99513.34;432513;1274;144821;-58
2022/06/24 07:07:07;;;;;;;8.50;8.00;;;;;;;54.88;9.91;99514.92;431108;1273;142230;-58
2022/06/24 07:17:13;;;;;;;10.10;9.50;;;;;;;55.54;9.53;99513.36;429869;1273;142676;-58
2022/06/24 07:27:19;;;;;;;9.60;9.30;;;;;;;53.00;9.44;99508.65;431047;1273;144266;-58
2022/06/24 07:37:25;;;;;;;10.20;9.80;;;;;;;53.18;9.57;99503.24;430406;1273;141225;-59
2022/06/24 07:47:30;;;;;;;3.80;2.80;;;;;;;51.98;9.46;99498.27;431138;1273;183531;-57
2022/06/24 07:57:36;;;;;;;1.60;1.50;;;;;;;45.23;12.02;99490.58;430690;1274;140497;-58
2022/06/24 08:07:44;;;;;;;2.10;1.90;;;;;;;37.72;16.81;99486.58;430506;1274;147711;-57
2022/06/24 08:17:50;;;;;;;2.00;1.50;;;;;;;33.33;20.33;99487.88;430074;1274;141900;-57
2022/06/24 08:27:56;;;;;;;1.70;1.50;;;;;;;30.72;22.97;99487.00;429991;1276;142013;-58
2022/06/24 08:38:02;;;;;;;1.70;1.50;;;;;;;29.40;24.43;99480.57;429707;1273;407324;-58
2022/06/24 08:48:10;;;;;;;1.20;1.10;;;;;;;28.47;26.36;99462.44;431152;1273;140918;-57
2022/06/24 08:58:16;;;;;;;1.30;1.20;;;;;;;28.09;26.58;99462.86;430252;1273;141529;-59
2022/06/24 09:08:22;;;;;;;3.20;1.50;;;;;;;27.59;26.75;99447.66;430054;1273;143447;-58
2022/06/24 09:18:28;;;;;;;4.50;1.80;;;;;;;27.52;27.25;99437.90;431491;1273;143684;-58
2022/06/24 09:28:34;;;;;;;3.30;1.50;;;;;;;27.24;27.77;99419.98;429702;1274;183982;-57
2022/06/24 09:49:18;;;;;;;4.30;1.30;;;;;;;27.30;28.71;99409.11;419076;1311;601920;-58
2022/06/24 10:09:52;;;;;;;2.60;1.60;;;;;;;26.76;29.43;99397.68;427512;1281;140888;-56
2022/06/24 10:19:59;;;;;;;5.60;2.90;;;;;;;26.69;29.79;99392.19;427492;1280;142214;-57
2022/06/24 10:30:05;;;;;;;;;;;;;;;26.60;30.03;99388.76;431205;1271;140496;-59
2022/06/24 10:40:25;;;;;;;1.70;1.50;;;;;;;26.40;30.54;99370.55;430741;1271;126800;-58
2022/06/24 10:50:31;;;;;;;3.40;1.80;;;;;;;26.21;30.53;99364.30;429634;1271;141446;-59
2022/06/24 11:00:51;;;;;;;1.90;1.40;;;;;;;26.15;30.85;99365.44;430475;1271;141014;-57
2022/06/24 11:10:58;;;;;;;1.20;1.10;;;;;;;26.14;30.80;99349.33;431600;1273;140604;-57
2022/06/24 11:21:05;;;;;;;1.80;1.50;;;;;;;26.29;31.14;99342.20;431713;1272;140731;-57
2022/06/24 11:31:19;;;;;;;1.90;1.40;;;;;;;26.41;30.88;99346.50;430211;1272;140087;-59
2022/06/24 11:41:27;;;;;;;1.60;1.50;;;;;;;26.54;30.97;99333.73;430971;1273;139929;-57
2022/06/24 11:51:53;;;;;;;3.80;1.50;;;;;;;26.71;31.08;99325.82;430594;1272;140961;-57
2022/06/24 12:01:59;;;;;;;1.50;1.20;;;;;;;26.77;31.14;99314.12;431192;1273;142035;-59
2022/06/24 12:12:14;;;;;;;1.50;1.40;;;;;;;26.56;31.57;99301.05;431144;1273;141604;-58
2022/06/24 12:22:19;;;;;;;4.30;1.30;;;;;;;26.69;31.45;99297.98;430598;1273;140935;-57
2022/06/24 12:32:47;;;;;;;1.50;1.40;;;;;;;26.72;31.58;99281.52;431250;1272;140868;-59
2022/06/24 12:43:08;;;;;;;1.70;1.50;;;;;;;26.83;31.36;99271.76;431542;1272;142069;-58
2022/06/24 12:53:14;;;;;;;1.20;1.10;;;;;;;26.78;31.59;99254.98;430632;1272;140498;-59
2022/06/24 13:03:21;;;;;;;3.50;1.20;;;;;;;26.72;31.71;99245.49;430572;1272;200092;-57
2022/06/24 13:13:27;;;;;;;3.10;1.50;;;;;;;27.00;31.94;99233.55;430827;1273;140791;-59
2022/06/24 13:23:34;;;;;;;2.50;1.70;;;;;;;27.27;31.27;99233.39;429721;1273;141326;-59
2022/06/24 13:33:39;;;;;;;2.90;1.20;;;;;;;27.17;31.32;99228.87;431056;1272;198365;-59
2022/06/24 13:43:46;;;;;;;1.30;1.20;;;;;;;27.10;31.38;99227.73;430425;1272;141227;-58
2022/06/24 13:53:52;;;;;;;1.20;1.10;;;;;;;27.14;31.59;99222.12;429287;1272;143431;-58
2022/06/24 14:03:58;;;;;;;1.40;1.30;;;;;;;26.97;31.57;99216.73;430133;1271;151859;-57
2022/06/24 14:14:04;;;;;;;1.70;1.60;;;;;;;26.93;31.59;99203.08;434596;1270;140768;-58
2022/06/24 14:34:33;;;;;;;1.80;1.10;;;;;;;26.92;31.75;99187.05;433050;1271;141047;-58
2022/06/24 14:44:40;;;;;;;1.80;1.00;;;;;;;26.82;31.69;99180.41;429481;1272;141640;-58
2022/06/24 14:54:46;;;;;;;2.70;1.40;;;;;;;26.64;32.25;99176.72;429886;1273;142544;-58
2022/06/24 15:04:51;;;;;;;1.30;1.20;;;;;;;26.70;32.27;99172.67;429656;1271;140439;-58
2022/06/24 15:14:57;;;;;;;4.50;1.60;;;;;;;26.75;32.19;99161.48;429753;1273;141717;-59
2022/06/24 15:25:05;;;;;;;1.50;1.10;;;;;;;26.62;32.30;99155.11;429954;1271;140566;-58
2022/06/24 15:35:11;;;;;;;1.60;1.50;;;;;;;26.36;32.33;99141.64;428941;1273;142834;-59
2022/06/24 15:45:17;;;;;;;2.20;1.30;;;;;;;26.46;32.77;99135.39;429878;1272;141974;-58
2022/06/24 15:55:22;;;;;;;3.60;1.50;;;;;;;26.55;32.60;99124.01;429989;1273;141487;-57
2022/06/24 16:05:28;;;;;;;1.40;1.30;;;;;;;26.56;32.62;99124.33;429941;1271;142515;-60
2022/06/24 16:15:34;;;;;;;2.70;1.40;;;;;;;26.49;32.97;99114.56;429967;1271;141336;-58
2022/06/24 16:36:05;;;;;;;2.60;1.40;;;;;;;26.25;33.29;99096.27;430415;1272;140628;-58
2022/06/24 16:46:12;;;;;;;5.00;1.80;;;;;;;26.20;33.24;99091.23;431195;1273;140697;-58
2022/06/24 16:56:19;;;;;;;2.70;1.40;;;;;;;26.23;33.44;99091.06;430121;1272;141841;-58
2022/06/24 17:06:25;;;;;;;5.00;1.30;;;;;;;26.14;33.63;99082.92;430988;1273;142040;-58
2022/06/24 17:16:31;;;;;;;3.90;1.50;;;;;;;26.03;33.84;99079.39;430616;1272;142455;-59
2022/06/24 17:26:37;;;;;;;2.00;1.20;;;;;;;26.16;34.20;99081.57;430291;1271;142537;-57
2022/06/24 17:36:43;;;;;;;2.10;1.60;;;;;;;26.05;34.36;99085.11;429846;1273;141282;-58
2022/06/24 17:46:49;;;;;;;2.20;1.70;;;;;;;25.74;34.62;99089.29;429870;1274;140916;-59
2022/06/24 17:56:55;;;;;;;1.80;1.50;;;;;;;25.64;35.17;99095.71;430284;1271;141944;-58
2022/06/24 18:07:01;;;;;;;1.50;1.40;;;;;;;25.67;35.39;99097.77;432178;1272;141132;-57
2022/06/24 18:17:07;;;;;;;2.60;1.50;;;;;;;25.15;36.19;99105.92;430411;1273;144224;-57
2022/06/24 18:27:13;;;;;;;2.80;1.70;;;;;;;24.75;37.03;99105.33;431539;1272;141853;-59
2022/06/24 18:37:19;;;;;;;3.90;2.20;;;;;;;24.41;37.83;99106.33;429767;1271;143850;-58
2022/06/24 18:47:25;;;;;;;4.90;2.30;;;;;;;24.05;38.64;99111.67;442246;1271;141604;-58
2022/06/24 18:57:31;;;;;;;4.60;2.10;;;;;;;23.75;39.32;99114.54;430617;1271;144609;-58
2022/06/24 19:07:37;;;;;;;4.10;2.50;;;;;;;23.43;39.74;99118.91;430263;1272;143579;-59
2022/06/24 19:17:44;;;;;;;5.20;2.10;;;;;;;23.12;40.24;99117.73;429435;1271;140347;-59
2022/06/24 19:27:49;;;;;;;2.60;1.80;;;;;;;22.86;40.98;99129.77;431833;1271;141019;-60
2022/06/24 19:37:59;;;;;;;3.40;2.80;;;;;;;22.61;41.45;99126.20;428991;1273;163542;-60
2022/06/24 19:48:06;;;;;;;6.60;3.00;;;;;;;22.38;42.12;99128.38;429917;1271;143802;-58
2022/06/24 19:58:12;;;;;;;4.50;2.90;;;;;;;22.17;42.57;99131.40;433396;1271;141694;-58
2022/06/24 20:08:21;;;;;;;5.70;2.40;;;;;;;21.98;42.99;99123.66;429310;1271;141526;-57
2022/06/24 20:18:28;;;;;;;5.40;2.90;;;;;;;21.82;43.55;99124.39;432841;1272;143288;-58
2022/06/24 20:28:34;;;;;;;3.00;2.80;;;;;;;21.68;43.95;99128.98;429718;1274;141794;-58
2022/06/24 20:38:40;;;;;;;3.50;2.60;;;;;;;21.50;44.41;99133.36;429062;1273;141132;-58
2022/06/24 20:48:47;;;;;;;3.40;2.80;;;;;;;21.36;44.71;99129.92;429943;1274;141432;-59
2022/06/24 20:58:52;;;;;;;3.80;3.40;;;;;;;21.22;45.07;99139.31;430144;1271;142216;-59
2022/06/24 21:08:58;;;;;;;5.90;2.60;;;;;;;21.06;45.30;99141.02;430214;1274;141702;-58
2022/06/24 21:19:04;;;;;;;7.20;4.20;;;;;;;20.89;45.62;99135.98;430195;1272;141587;-56
2022/06/24 21:29:10;;;;;;;4.40;3.20;;;;;;;20.71;45.96;99129.55;428929;1274;145124;-54
2022/06/24 21:39:16;;;;;;;4.30;2.80;;;;;;;20.57;46.36;99121.59;430379;1271;141220;-59
2022/06/24 21:49:22;;;;;;;5.00;3.00;;;;;;;20.40;46.78;99122.27;430063;1271;142752;-57
2022/06/24 21:59:28;;;;;;;4.00;2.80;;;;;;;20.21;47.10;99120.59;429872;1271;339633;-58
2022/06/24 22:09:34;;;;;;;5.40;2.70;;;;;;;20.05;47.25;99122.82;430390;1271;144118;-58
2022/06/24 22:19:40;;;;;;;4.80;2.80;;;;;;;19.92;47.53;99124.73;430058;1271;145868;-58
2022/06/24 22:29:45;;;;;;;3.60;2.90;;;;;;;19.73;47.82;99135.68;429362;1271;140909;-57
2022/06/24 22:39:51;;;;;;;4.10;3.00;;;;;;;19.51;48.53;99151.48;430004;1271;146220;-59
2022/06/24 22:49:57;;;;;;;6.30;3.20;;;;;;;19.29;49.09;99162.59;429670;1271;146322;-56
2022/06/24 23:00:03;;;;;;;4.20;3.40;;;;;;;19.07;49.56;99172.72;430281;1271;209316;-59
2022/06/24 23:10:15;;;;;;;3.40;3.10;;;;;;;18.83;50.09;99177.44;430715;1271;142683;-57
2022/06/24 23:20:21;;;;;;;3.20;2.90;;;;;;;18.66;50.36;99168.77;429632;1270;140754;-58
2022/06/24 23:30:27;;;;;;;4.20;3.50;;;;;;;18.53;50.54;99166.23;430453;1271;142224;-58
2022/06/24 23:40:33;;;;;;;4.20;3.50;;;;;;;18.42;50.75;99156.17;431583;1270;141646;-59
